createdAt,value
2023-02-15T00:00:16.756Z,1.48
2023-02-15T00:02:45.967Z,1.44
2023-02-15T00:05:12.837Z,1.31
2023-02-15T00:07:43.087Z,1.21
2023-02-15T00:10:13.219Z,1.18
2023-02-15T00:12:42.336Z,1.10
2023-02-15T00:15:09.403Z,1.01
2023-02-15T00:17:36.101Z,1.00
2023-02-15T00:20:03.065Z,0.97
2023-02-15T00:22:29.878Z,1.12
2023-02-15T00:24:56.513Z,1.11
2023-02-15T00:27:23.504Z,1.15
2023-02-15T00:29:50.215Z,1.15
2023-02-15T00:32:16.868Z,1.16
2023-02-15T00:34:44.339Z,1.21
2023-02-15T00:37:11.239Z,1.37
2023-02-15T00:39:44.164Z,1.40
2023-02-15T00:42:10.887Z,1.53
2023-02-15T00:44:37.593Z,1.59
2023-02-15T00:47:04.385Z,1.69
2023-02-15T00:49:31.137Z,1.70
2023-02-15T00:51:57.911Z,1.67
2023-02-15T00:54:24.726Z,1.63
2023-02-15T00:56:53.273Z,1.57
2023-02-15T00:59:20.120Z,1.41
2023-02-15T01:01:46.900Z,1.27
2023-02-15T01:04:13.877Z,1.32
2023-02-15T01:06:46.651Z,1.40
2023-02-15T01:09:14.582Z,1.46
2023-02-15T01:11:44.230Z,1.54
2023-02-15T01:14:16.842Z,1.49
2023-02-15T01:16:46.880Z,1.44
2023-02-15T01:19:17.450Z,1.39
2023-02-15T01:21:46.700Z,1.30
2023-02-15T01:24:17.057Z,1.29
2023-02-15T01:26:46.701Z,1.26
2023-02-15T01:29:13.476Z,1.28
2023-02-15T01:31:43.462Z,1.41
2023-02-15T01:34:10.512Z,1.40
2023-02-15T01:36:37.813Z,1.49
2023-02-15T01:39:04.691Z,1.49
2023-02-15T01:41:31.940Z,1.41
2023-02-15T01:44:04.897Z,1.36
2023-02-15T01:46:55.797Z,1.29
2023-02-15T01:49:28.468Z,1.21
2023-02-15T01:51:55.672Z,1.12
2023-02-15T01:54:33.763Z,1.07
2023-02-15T01:57:17.429Z,1.00
2023-02-15T01:59:56.238Z,1.00
2023-02-15T02:02:25.473Z,0.96
2023-02-15T02:05:04.111Z,0.92
2023-02-15T02:07:44.256Z,0.83
2023-02-15T02:10:23.925Z,0.82
2023-02-15T02:12:59.099Z,0.75
2023-02-15T02:15:56.169Z,0.76
2023-02-15T02:18:38.868Z,0.67
2023-02-15T02:21:45.548Z,0.63
2023-02-15T02:25:15.500Z,0.55
2023-02-15T02:28:44.324Z,0.67
2023-02-15T02:31:20.203Z,0.65
2023-02-15T02:34:22.294Z,0.64
2023-02-15T02:37:31.571Z,0.70
2023-02-15T02:40:30.264Z,0.69
2023-02-15T02:43:21.898Z,0.69
2023-02-15T02:46:04.623Z,0.74
2023-02-15T02:48:35.249Z,0.72
2023-02-15T02:51:08.489Z,0.76
2023-02-15T02:53:35.794Z,0.83
2023-02-15T02:56:42.249Z,0.95
2023-02-15T02:59:33.321Z,1.04
2023-02-15T03:02:26.436Z,1.10
2023-02-15T03:05:07.286Z,1.16
2023-02-15T03:07:36.848Z,1.16
2023-02-15T03:10:10.212Z,1.19
2023-02-15T03:12:44.703Z,1.20
2023-02-15T03:15:25.412Z,1.23
2023-02-15T03:18:05.248Z,1.23
2023-02-15T03:20:44.665Z,1.25
2023-02-15T03:23:23.397Z,1.16
2023-02-15T03:26:01.909Z,1.12
2023-02-15T03:28:49.646Z,1.12
2023-02-15T03:31:25.466Z,1.14
2023-02-15T03:34:07.294Z,1.13
2023-02-15T03:37:35.292Z,1.13
2023-02-15T03:40:50.186Z,1.10
2023-02-15T03:43:41.719Z,1.08
2023-02-15T03:46:21.131Z,1.02
2023-02-15T03:48:58.567Z,0.98
2023-02-15T03:51:36.361Z,0.91
2023-02-15T03:54:39.022Z,0.82
2023-02-15T03:57:48.924Z,0.82
2023-02-15T04:00:43.828Z,0.79
2023-02-15T04:03:16.920Z,0.75
2023-02-15T04:05:45.743Z,0.73
2023-02-15T04:08:14.199Z,0.75
2023-02-15T04:10:57.118Z,0.69
2023-02-15T04:13:32.876Z,0.67
2023-02-15T04:16:15.081Z,0.64
2023-02-15T04:19:03.746Z,0.56
2023-02-15T04:21:51.793Z,0.54
2023-02-15T04:24:37.926Z,0.50
2023-02-15T04:27:11.168Z,0.43
2023-02-15T04:29:39.005Z,0.41
2023-02-15T04:32:09.101Z,0.37
2023-02-15T04:34:35.761Z,0.37
2023-02-15T04:37:02.508Z,0.35
2023-02-15T04:39:31.051Z,0.33
2023-02-15T04:42:00.991Z,0.31
2023-02-15T04:44:30.738Z,0.29
2023-02-15T04:46:57.727Z,0.32
2023-02-15T04:49:24.490Z,0.32
2023-02-15T04:51:51.241Z,0.32
2023-02-15T04:54:18.183Z,0.30
2023-02-15T04:56:45.290Z,0.24
2023-02-15T04:59:15.377Z,0.25
2023-02-15T05:01:45.474Z,0.22
2023-02-15T05:04:12.256Z,0.23
2023-02-15T05:06:42.180Z,0.27
2023-02-15T08:15:18.869Z,0.83
2023-02-15T08:42:22.134Z,0.86
2023-02-15T08:44:55.165Z,1.04
2023-02-15T08:47:21.893Z,1.13
2023-02-15T08:49:48.586Z,1.17
2023-02-15T08:52:15.226Z,1.14
2023-02-15T08:54:44.995Z,1.13
2023-02-15T08:57:15.630Z,1.03
2023-02-15T08:59:42.512Z,1.00
2023-02-15T09:02:16.276Z,1.12
2023-02-15T09:04:43.059Z,1.17
2023-02-15T09:07:19.088Z,1.19
2023-02-15T09:09:47.009Z,1.16
2023-02-15T09:12:13.893Z,1.15
2023-02-15T09:14:43.788Z,1.34
2023-02-15T09:17:19.663Z,1.62
2023-02-15T09:19:46.377Z,1.55
2023-02-15T09:22:16.081Z,1.31
2023-02-15T09:24:45.761Z,1.28
2023-02-15T09:27:21.225Z,1.55
2023-02-15T09:29:48.038Z,1.68
2023-02-15T09:32:16.160Z,1.83
2023-02-15T09:34:42.955Z,1.69
2023-02-15T09:37:10.037Z,1.70
2023-02-15T09:39:44.747Z,1.71
2023-02-15T09:43:29.906Z,1.78
2023-02-15T09:46:46.027Z,1.92
2023-02-15T09:49:44.722Z,1.73
2023-02-15T09:52:43.878Z,1.67
2023-02-15T09:55:40.548Z,1.64
2023-02-15T09:58:51.921Z,1.56
2023-02-15T10:01:55.290Z,1.78
2023-02-15T10:04:57.615Z,1.86
2023-02-15T10:07:48.565Z,2.12
2023-02-15T10:11:23.076Z,2.42
2023-02-15T10:14:46.020Z,2.47
2023-02-15T10:18:02.989Z,2.49
2023-02-15T10:20:53.343Z,2.45
2023-02-15T10:24:12.636Z,2.15
2023-02-15T10:26:50.852Z,2.05
2023-02-15T10:29:43.224Z,2.00
2023-02-15T10:33:11.116Z,1.99
2023-02-15T10:36:16.171Z,2.22
2023-02-15T10:39:10.188Z,2.25
2023-02-15T10:42:01.172Z,2.27
2023-02-15T10:45:35.258Z,2.49
2023-02-15T10:48:57.597Z,2.58
2023-02-15T10:52:24.578Z,2.62
2023-02-15T10:55:36.586Z,2.64
2023-02-15T10:59:07.514Z,2.50
2023-02-15T11:01:59.554Z,2.74
2023-02-15T11:04:54.871Z,2.88
2023-02-15T11:07:44.453Z,3.08
2023-02-15T11:10:59.691Z,3.26
2023-02-15T11:13:35.872Z,3.26
2023-02-15T11:16:37.687Z,3.27
2023-02-15T11:19:24.875Z,3.36
2023-02-15T11:22:00.249Z,3.55
2023-02-15T11:24:32.589Z,3.55
2023-02-15T11:27:20.204Z,3.34
2023-02-15T11:30:25.184Z,3.33
2023-02-15T11:33:02.867Z,3.46
2023-02-15T11:35:56.913Z,3.59
2023-02-15T11:38:35.453Z,3.67
2023-02-15T11:41:20.171Z,3.72
2023-02-15T11:44:09.466Z,3.70
2023-02-15T11:46:38.406Z,3.73
2023-02-15T11:49:34.861Z,3.70
2023-02-15T11:52:14.456Z,3.58
2023-02-15T11:54:51.333Z,3.57
2023-02-15T11:57:34.758Z,3.59
2023-02-15T12:00:26.576Z,3.69
2023-02-15T12:03:03.248Z,3.96
2023-02-15T12:05:31.247Z,4.09
2023-02-15T12:08:18.524Z,4.13
2023-02-15T12:11:36.660Z,4.06
2023-02-15T12:14:22.916Z,4.16
2023-02-15T12:16:56.864Z,4.22
2023-02-15T12:19:43.955Z,4.11
2023-02-15T12:22:31.559Z,3.98
2023-02-15T12:25:05.008Z,4.06
2023-02-15T12:27:36.444Z,4.02
2023-02-15T12:30:22.921Z,4.04
2023-02-15T12:33:00.653Z,4.12
2023-02-15T12:35:36.994Z,4.21
2023-02-15T13:40:55.502Z,4.30
2023-02-15T13:43:59.637Z,4.34
2023-02-15T13:47:13.883Z,4.45
2023-02-15T13:50:49.978Z,4.47
2023-02-15T13:54:01.283Z,4.44
2023-02-15T13:57:44.342Z,4.40
2023-02-15T14:00:32.874Z,4.43
2023-02-15T14:03:48.858Z,4.43
2023-02-15T14:07:07.410Z,4.43
2023-02-15T14:10:26.390Z,4.41
2023-02-15T14:13:54.487Z,4.50
2023-02-15T14:17:07.506Z,4.59
2023-02-15T14:20:17.092Z,4.69
2023-02-15T14:23:31.895Z,4.79
2023-02-15T14:26:56.621Z,4.79
2023-02-15T14:30:18.004Z,4.84
2023-02-15T14:32:54.031Z,4.84
2023-02-15T14:35:29.152Z,4.92
2023-02-15T14:38:27.826Z,5.00
2023-02-15T14:41:38.953Z,4.97
2023-02-15T14:45:01.063Z,4.90
2023-02-15T14:48:24.309Z,4.90
2023-02-15T14:50:51.424Z,4.84
2023-02-15T14:53:45.282Z,4.77
2023-02-15T14:56:11.964Z,4.72
2023-02-15T14:58:56.417Z,4.72
2023-02-15T15:01:32.912Z,4.58
2023-02-15T15:04:35.341Z,4.50
2023-02-15T15:07:29.642Z,4.52
2023-02-15T15:10:20.166Z,4.46
2023-02-15T15:13:33.331Z,4.45
2023-02-15T15:16:52.221Z,4.44
2023-02-15T15:20:01.383Z,4.52
2023-02-15T15:22:32.584Z,4.54
2023-02-15T15:25:47.354Z,4.54
2023-02-15T15:28:44.730Z,4.52
2023-02-15T15:31:29.979Z,4.44
2023-02-15T15:34:20.444Z,4.47
2023-02-15T15:37:24.732Z,4.41
2023-02-15T15:40:50.950Z,4.39
2023-02-15T15:44:08.408Z,4.32
2023-02-15T15:47:06.646Z,4.28
2023-02-15T15:49:38.820Z,4.26
2023-02-15T15:52:32.305Z,4.26
2023-02-15T15:58:31.719Z,4.16
2023-02-15T16:01:48.215Z,4.09
2023-02-15T16:07:32.729Z,4.12
2023-02-15T16:10:09.171Z,4.09
2023-02-15T16:12:56.669Z,4.10
2023-02-15T16:15:56.441Z,4.08
2023-02-15T16:18:34.810Z,4.06
2023-02-15T16:21:22.316Z,4.08
2023-02-15T16:24:25.379Z,4.08
2023-02-15T16:27:16.318Z,4.03
2023-02-15T16:29:53.789Z,4.03
2023-02-15T16:32:29.055Z,4.02
2023-02-15T16:35:20.591Z,3.96
2023-02-15T16:37:57.991Z,3.93
2023-02-15T16:40:59.414Z,3.89
2023-02-15T16:43:34.054Z,3.78
2023-02-15T16:47:18.462Z,3.72
2023-02-15T16:49:56.602Z,3.69
2023-02-15T16:52:30.021Z,3.65
2023-02-15T16:55:29.639Z,3.67
2023-02-15T16:58:06.216Z,3.58
2023-02-15T17:03:38.254Z,3.53
2023-02-15T17:06:37.504Z,3.58
2023-02-15T17:09:19.243Z,3.60
2023-02-15T17:11:52.465Z,3.57
2023-02-15T17:15:02.702Z,3.54
2023-02-15T17:17:35.438Z,3.53
2023-02-15T17:20:21.789Z,3.45
2023-02-15T17:22:54.235Z,3.38
2023-02-15T17:25:38.811Z,3.40
2023-02-15T17:28:16.942Z,3.41
2023-02-15T17:30:53.401Z,3.31
2023-02-15T17:33:36.474Z,3.27
2023-02-15T17:36:32.515Z,3.22
2023-02-15T17:38:59.135Z,3.08
2023-02-15T17:41:48.578Z,3.06
2023-02-15T17:44:32.006Z,3.07
2023-02-15T17:47:01.570Z,3.10
2023-02-15T17:49:47.039Z,3.11
2023-02-15T17:52:18.733Z,3.07
2023-02-15T17:55:20.523Z,3.08
2023-02-15T21:24:57.826Z,1.81
2023-02-15T21:27:24.469Z,1.80
2023-02-15T21:29:54.002Z,1.80
2023-02-15T21:32:20.924Z,1.72
2023-02-15T21:34:53.620Z,1.73
2023-02-15T21:37:35.490Z,1.76
2023-02-15T21:40:05.873Z,1.75
2023-02-15T21:42:51.575Z,1.74
2023-02-15T21:45:45.270Z,1.69
2023-02-15T21:48:12.029Z,1.62
2023-02-15T21:51:03.725Z,1.63
2023-02-15T21:53:53.137Z,1.59
2023-02-15T21:56:24.411Z,1.53
2023-02-15T21:58:54.032Z,1.58
2023-02-15T22:01:28.286Z,1.58
2023-02-15T22:03:58.900Z,1.56
2023-02-15T22:06:25.893Z,1.52
2023-02-15T22:08:53.387Z,1.52
2023-02-15T22:11:22.584Z,1.50
2023-02-15T22:13:53.855Z,1.50
2023-02-15T22:16:26.946Z,1.44
2023-02-15T22:18:53.650Z,1.45
2023-02-15T22:21:20.820Z,1.49
2023-02-15T22:23:47.508Z,1.42
2023-02-15T22:26:24.418Z,1.36
2023-02-15T22:28:54.180Z,1.35
2023-02-15T22:31:23.000Z,1.37
2023-02-15T22:33:58.608Z,1.36
2023-02-15T22:36:30.377Z,1.35
2023-02-15T22:38:58.281Z,1.37
2023-02-15T22:41:31.451Z,1.34
2023-02-15T22:43:59.167Z,1.30
2023-02-15T22:46:26.822Z,1.31
2023-02-15T22:48:57.066Z,1.33
2023-02-15T22:51:25.070Z,1.38
2023-02-15T22:54:06.140Z,1.36
2023-02-15T22:56:54.812Z,1.39
2023-02-15T22:59:28.731Z,1.38
2023-02-15T23:02:03.417Z,1.37
2023-02-15T23:04:30.555Z,1.32
2023-02-15T23:06:59.381Z,1.35
2023-02-15T23:09:26.520Z,1.33
2023-02-15T23:11:59.486Z,1.37
2023-02-15T23:14:42.905Z,1.32
2023-02-15T23:17:09.599Z,1.31
2023-02-15T23:19:47.355Z,1.38
2023-02-15T23:22:18.194Z,1.35
2023-02-15T23:24:54.069Z,1.40
2023-02-15T23:27:46.610Z,1.40
2023-02-15T23:30:15.335Z,1.45
2023-02-15T23:32:42.421Z,1.42
2023-02-15T23:35:20.165Z,1.42
2023-02-15T23:37:46.934Z,1.46
2023-02-15T23:40:42.813Z,1.45
2023-02-15T23:43:23.034Z,1.39
2023-02-15T23:45:49.901Z,1.38
2023-02-15T23:48:34.063Z,1.40
2023-02-15T23:51:05.915Z,1.42
2023-02-15T23:53:33.728Z,1.34
2023-02-15T23:56:01.825Z,1.39
2023-02-15T23:58:43.827Z,1.48
